Terminal Aerodrome Forecast
Issued by NWS Louisville, KY

Home | Current Version | Previous Version | Text Only | Print | Product List | Glossary On
Versions: 1 2 3 4 5 6 7 8 9 10 11 12 13 14 15 16 17 18
798
FTUS43 KLMK 301728
TAFLEX
TAF
KLEX 301728Z 3018/0118 18016G24KT P6SM SCT070 BKN250
     FM010200 16015G23KT P6SM VCTS SCT040CB BKN120
      TEMPO 0105/0109 3SM -TSRA BKN030CB
     FM010900 21016G23KT 6SM -SHRA BKN040
     FM011400 21018G28KT P6SM BKN050=

USA.gov is the U.S. government's official web portal to all federal, state and local government web resources and services.